createdAt,value
2023-09-06T00:00:38.745Z,97518.72
2023-09-06T00:03:07.967Z,97522.94
2023-09-06T00:05:35.588Z,97514.47
2023-09-06T00:08:03.492Z,97518.22
2023-09-06T00:10:31.416Z,97520.78
2023-09-06T00:12:59.051Z,97522.13
2023-09-06T00:15:26.976Z,97529.69
2023-09-06T00:17:54.601Z,97526.84
2023-09-06T00:20:23.852Z,97528.03
2023-09-06T00:22:55.953Z,97525.31
2023-09-06T00:25:25.001Z,97532.91
2023-09-06T00:27:52.989Z,97522.81
2023-09-06T00:30:20.870Z,97529.69
2023-09-06T00:32:49.765Z,97533.44
2023-09-06T00:35:17.665Z,97532.75
2023-09-06T00:37:46.651Z,97536.97
2023-09-06T00:40:14.675Z,97538.03
2023-09-06T00:42:42.321Z,97541.91
2023-09-06T00:45:10.338Z,97545.19
2023-09-06T00:47:38.461Z,97543.59
2023-09-06T00:50:07.901Z,97540.50
2023-09-06T00:52:35.544Z,97547.44
2023-09-06T00:55:04.944Z,97542.25
2023-09-06T00:57:35.132Z,97541.28
2023-09-06T01:00:04.014Z,97542.06
2023-09-06T01:02:31.720Z,97543.91
2023-09-06T01:04:59.577Z,97537.19
2023-09-06T01:07:32.485Z,97537.50
2023-09-06T01:12:29.358Z,97540.00
2023-09-06T01:14:57.180Z,97538.81
2023-09-06T01:20:08.925Z,97534.13
2023-09-06T01:22:45.103Z,97540.44
2023-09-06T01:25:15.878Z,97537.91
2023-09-06T01:27:44.605Z,97537.59
2023-09-06T01:30:12.937Z,97544.34
2023-09-06T01:35:08.886Z,97544.88
2023-09-06T01:37:36.541Z,97544.09
2023-09-06T01:40:05.170Z,97537.16
2023-09-06T01:42:34.542Z,97542.94
2023-09-06T01:45:02.481Z,97545.53
2023-09-06T01:47:30.351Z,97537.13
2023-09-06T01:49:57.970Z,97533.09
2023-09-06T01:52:25.580Z,97535.81
2023-09-06T01:54:54.048Z,97530.09
2023-09-06T01:57:21.685Z,97528.56
2023-09-06T01:59:50.794Z,97528.34
2023-09-06T02:02:19.432Z,97529.41
2023-09-06T02:04:47.271Z,97523.44
2023-09-06T02:07:14.966Z,97526.25
2023-09-06T02:09:44.044Z,97532.97
2023-09-06T02:12:11.914Z,97523.84
2023-09-06T02:14:39.501Z,97526.22
2023-09-06T02:17:08.582Z,97527.91
2023-09-06T02:19:36.481Z,97533.09
2023-09-06T02:22:04.448Z,97527.53
2023-09-06T02:24:32.047Z,97527.53
2023-09-06T02:26:59.720Z,97532.03
2023-09-06T02:29:27.334Z,97527.63
2023-09-06T02:31:55.016Z,97535.91
2023-09-06T02:34:24.008Z,97533.97
2023-09-06T02:36:51.671Z,97537.34
2023-09-06T02:39:19.290Z,97540.44
2023-09-06T02:41:46.898Z,97540.38
2023-09-06T02:44:14.506Z,97534.84
2023-09-06T02:46:42.171Z,97538.78
2023-09-06T02:49:10.256Z,97538.97
2023-09-06T02:51:39.859Z,97545.31
2023-09-06T02:54:07.491Z,97541.69
2023-09-06T02:56:35.132Z,97540.06
2023-09-06T02:59:02.718Z,97544.13
2023-09-06T03:01:30.932Z,97541.59
2023-09-06T03:03:58.609Z,97541.78
2023-09-06T03:06:26.308Z,97545.31
2023-09-06T03:08:55.261Z,97546.94
2023-09-06T03:11:22.864Z,97554.03
2023-09-06T03:13:50.444Z,97554.69
2023-09-06T03:16:18.132Z,97563.09
2023-09-06T03:18:45.920Z,97561.66
2023-09-06T03:21:13.579Z,97556.56
2023-09-06T03:23:41.243Z,97563.09
2023-09-06T03:26:10.187Z,97566.38
2023-09-06T03:28:37.903Z,97562.66
2023-09-06T03:31:05.560Z,97560.69
2023-09-06T03:33:33.242Z,97561.56
2023-09-06T03:36:00.976Z,97563.41
2023-09-06T03:38:29.354Z,97571.19
2023-09-06T03:40:58.601Z,97570.19
2023-09-06T03:43:27.696Z,97564.88
2023-09-06T03:45:55.307Z,97573.09
2023-09-06T03:48:23.097Z,97573.59
2023-09-06T03:50:52.781Z,97578.41
2023-09-06T03:53:20.665Z,97579.47
2023-09-06T03:55:50.657Z,97580.38
2023-09-06T03:58:18.538Z,97585.91
2023-09-06T04:00:47.554Z,97592.84
2023-09-06T04:03:18.587Z,97580.41
2023-09-06T04:05:46.848Z,97591.50
2023-09-06T04:08:14.584Z,97592.34
2023-09-06T04:10:42.234Z,97586.84
2023-09-06T04:13:12.159Z,97581.66
2023-09-06T04:15:41.685Z,97587.06
2023-09-06T04:18:12.639Z,97585.28
2023-09-06T04:20:41.449Z,97591.69
2023-09-06T04:23:10.741Z,97584.53
2023-09-06T04:25:38.635Z,97586.34
2023-09-06T04:28:06.601Z,97589.16
2023-09-06T04:30:37.766Z,97594.31
2023-09-06T04:33:06.543Z,97588.72
2023-09-06T04:35:39.167Z,97587.38
2023-09-06T04:38:06.858Z,97591.69
2023-09-06T04:40:34.524Z,97592.97
2023-09-06T04:43:02.201Z,97589.50
2023-09-06T04:45:29.795Z,97588.63
2023-09-06T04:47:57.470Z,97585.72
2023-09-06T04:50:25.643Z,97592.44
2023-09-06T04:52:54.677Z,97586.25
2023-09-06T04:55:22.314Z,97593.34
2023-09-06T04:57:50.114Z,97592.84
2023-09-06T05:00:17.882Z,97589.22
2023-09-06T05:02:47.195Z,97591.66
2023-09-06T05:05:16.740Z,97591.84
2023-09-06T05:07:44.830Z,97602.09
2023-09-06T05:10:14.650Z,97599.19
2023-09-06T05:12:42.894Z,97598.09
2023-09-06T05:15:10.701Z,97589.09
2023-09-06T05:17:38.375Z,97592.34
2023-09-06T05:20:28.632Z,97594.19
2023-09-06T05:22:58.526Z,97602.09
2023-09-06T05:25:28.018Z,97595.75
2023-09-06T05:27:59.244Z,97597.69
2023-09-06T05:30:28.038Z,97604.22
2023-09-06T05:32:56.838Z,97605.81
2023-09-06T05:35:24.592Z,97593.66
2023-09-06T05:37:52.726Z,97605.47
2023-09-06T05:40:20.901Z,97603.13
2023-09-06T05:42:49.953Z,97605.25
2023-09-06T05:45:19.377Z,97607.25
2023-09-06T05:47:47.161Z,97599.06
2023-09-06T05:50:15.448Z,97605.72
2023-09-06T05:52:43.337Z,97608.53
2023-09-06T05:55:11.361Z,97614.88
2023-09-06T05:57:39.823Z,97612.34
2023-09-06T06:00:10.179Z,97607.38
2023-09-06T06:02:38.008Z,97602.31
2023-09-06T06:05:06.537Z,97592.31
2023-09-06T06:07:34.320Z,97613.72
2023-09-06T06:10:02.001Z,97598.16
2023-09-06T06:12:29.717Z,97617.44
2023-09-06T06:14:57.327Z,97614.16
2023-09-06T06:17:26.268Z,97611.00
2023-09-06T06:19:53.889Z,97608.97
2023-09-06T06:22:21.537Z,97611.00
2023-09-06T06:24:49.255Z,97614.00
2023-09-06T06:27:17.227Z,97613.28
2023-09-06T06:29:45.079Z,97608.50
2023-09-06T06:32:12.826Z,97612.22
2023-09-06T06:34:41.894Z,97627.47
2023-09-06T06:37:09.549Z,97620.88
2023-09-06T06:39:37.124Z,97630.25
2023-09-06T06:42:05.000Z,97622.09
2023-09-06T06:44:32.850Z,97615.31
2023-09-06T06:47:00.698Z,97611.19
2023-09-06T06:49:28.388Z,97623.16
2023-09-06T06:51:57.617Z,97613.31
2023-09-06T06:54:25.325Z,97611.34
2023-09-06T06:56:52.928Z,97619.66
2023-09-06T06:59:20.674Z,97614.91
2023-09-06T07:01:48.761Z,97617.63
2023-09-06T07:04:16.473Z,97618.06
2023-09-06T07:06:44.067Z,97610.41
2023-09-06T07:09:13.066Z,97622.31
2023-09-06T07:11:41.041Z,97620.81
2023-09-06T07:14:08.841Z,97627.16
2023-09-06T07:16:36.693Z,97620.03
2023-09-06T07:19:04.442Z,97618.44
2023-09-06T07:21:32.597Z,97621.19
2023-09-06T07:24:00.188Z,97614.28
2023-09-06T07:26:29.477Z,97619.78
2023-09-06T07:28:57.172Z,97620.75
2023-09-06T07:31:24.841Z,97614.09
2023-09-06T07:33:52.762Z,97607.41
2023-09-06T07:36:20.767Z,97614.16
2023-09-06T07:38:49.078Z,97613.72
2023-09-06T07:41:19.103Z,97619.50
2023-09-06T07:43:48.350Z,97617.13
2023-09-06T07:46:15.988Z,97615.47
2023-09-06T07:48:44.145Z,97612.41
2023-09-06T07:51:12.146Z,97615.53
2023-09-06T07:53:39.860Z,97618.75
2023-09-06T07:56:07.588Z,97619.78
2023-09-06T07:58:36.143Z,97622.44
2023-09-06T08:01:18.178Z,97619.91
2023-09-06T08:03:47.347Z,97620.19
2023-09-06T08:06:16.198Z,97629.25
2023-09-06T08:08:44.208Z,97615.94
2023-09-06T08:11:12.285Z,97620.78
2023-09-06T08:13:39.959Z,97623.00
2023-09-06T08:16:10.301Z,97622.91
2023-09-06T08:18:40.480Z,97623.41
2023-09-06T08:21:08.257Z,97618.66
2023-09-06T08:23:35.918Z,97613.75
2023-09-06T08:26:03.772Z,97619.84
2023-09-06T08:28:31.909Z,97616.38
2023-09-06T08:30:59.775Z,97615.69
2023-09-06T08:33:29.237Z,97617.56
2023-09-06T08:35:56.895Z,97612.03
2023-09-06T08:38:24.870Z,97612.28
2023-09-06T08:40:52.515Z,97607.63
2023-09-06T08:43:20.790Z,97608.66
2023-09-06T08:45:50.008Z,97604.19
2023-09-06T08:48:18.798Z,97607.47
2023-09-06T08:50:50.567Z,97613.47
2023-09-06T08:53:19.976Z,97610.22
2023-09-06T08:55:48.580Z,97614.75
2023-09-06T08:58:16.505Z,97614.00
2023-09-06T09:00:44.283Z,97612.44
2023-09-06T09:03:12.072Z,97613.31
2023-09-06T09:05:39.826Z,97612.75
2023-09-06T09:08:08.778Z,97613.72
2023-09-06T09:10:36.582Z,97616.00
2023-09-06T09:13:04.456Z,97610.22
2023-09-06T09:15:34.115Z,97610.63
2023-09-06T09:18:10.946Z,97611.56
2023-09-06T09:20:39.637Z,97617.03
2023-09-06T09:23:13.679Z,97613.16
2023-09-06T09:25:47.289Z,97607.53
2023-09-06T09:28:15.430Z,97602.56
2023-09-06T09:30:43.297Z,97604.94
2023-09-06T09:33:11.187Z,97597.44
2023-09-06T09:35:38.937Z,97603.28
2023-09-06T09:38:06.548Z,97598.88
2023-09-06T09:40:46.450Z,97596.66
2023-09-06T09:43:18.051Z,97597.47
2023-09-06T09:45:46.258Z,97588.13
2023-09-06T09:48:15.574Z,97595.06
2023-09-06T09:50:45.419Z,97586.84
2023-09-06T09:55:49.121Z,97583.25
2023-09-06T09:58:18.014Z,97575.72
2023-09-06T10:00:46.581Z,97581.34
2023-09-06T10:03:16.507Z,97580.72
2023-09-06T10:05:45.520Z,97578.09
2023-09-06T10:08:15.743Z,97576.44
2023-09-06T10:10:43.993Z,97577.34
2023-09-06T10:13:15.580Z,97578.41
2023-09-06T10:15:44.825Z,97571.16
2023-09-06T10:18:13.324Z,97569.41
2023-09-06T10:20:42.034Z,97569.56
2023-09-06T10:23:10.456Z,97569.47
2023-09-06T10:25:42.080Z,97567.03
2023-09-06T10:28:10.216Z,97569.78
2023-09-06T10:30:42.112Z,97571.75
2023-09-06T10:33:09.844Z,97567.78
2023-09-06T10:35:43.248Z,97564.88
2023-09-06T10:38:12.923Z,97563.38
2023-09-06T10:41:05.980Z,97571.13
2023-09-06T10:43:54.297Z,97562.72
2023-09-06T10:46:28.423Z,97554.66
2023-09-06T10:49:22.423Z,97558.75
2023-09-06T10:51:58.449Z,97556.88
2023-09-06T10:54:30.470Z,97544.88
2023-09-06T10:56:58.397Z,97548.50
2023-09-06T10:59:27.472Z,97546.84
2023-09-06T11:02:27.023Z,97542.28
2023-09-06T11:05:05.457Z,97540.34
2023-09-06T11:07:49.823Z,97541.41
2023-09-06T11:10:22.103Z,97541.59
2023-09-06T11:12:49.876Z,97533.78
2023-09-06T11:15:17.787Z,97534.47
2023-09-06T11:17:48.074Z,97531.53
2023-09-06T11:20:16.901Z,97539.53
2023-09-06T11:22:57.020Z,97522.56
2023-09-06T11:25:26.551Z,97523.56
2023-09-06T11:27:56.114Z,97516.19
2023-09-06T11:30:24.040Z,97514.44
2023-09-06T11:32:54.360Z,97516.19
2023-09-06T11:35:27.502Z,97508.38
2023-09-06T11:37:58.408Z,97511.91
2023-09-06T11:40:27.204Z,97509.28
2023-09-06T11:42:57.976Z,97508.66
2023-09-06T11:45:27.405Z,97500.56
2023-09-06T11:48:00.195Z,97508.88
2023-09-06T11:50:28.285Z,97500.56
2023-09-06T11:52:59.378Z,97500.78
2023-09-06T11:55:33.521Z,97491.63
2023-09-06T11:58:01.895Z,97497.59
2023-09-06T12:00:35.814Z,97492.09
2023-09-06T12:03:15.145Z,97488.53
2023-09-06T12:05:49.249Z,97487.16
2023-09-06T12:08:19.866Z,97493.25
2023-09-06T12:10:48.276Z,97489.78
2023-09-06T12:13:16.173Z,97485.63
2023-09-06T12:15:44.613Z,97486.81
2023-09-06T12:18:14.699Z,97476.59
2023-09-06T12:20:42.651Z,97477.91
2023-09-06T12:23:10.341Z,97490.50
2023-09-06T12:25:37.970Z,97483.53
2023-09-06T12:28:05.930Z,97481.19
2023-09-06T12:30:33.980Z,97480.66
2023-09-06T12:33:01.721Z,97469.63
2023-09-06T12:35:30.757Z,97473.78
2023-09-06T12:37:58.344Z,97460.72
2023-09-06T12:40:27.578Z,97463.72
2023-09-06T12:42:55.496Z,97460.34
2023-09-06T12:45:27.235Z,97454.38
2023-09-06T12:47:55.602Z,97452.91
2023-09-06T12:50:23.544Z,97452.75
2023-09-06T12:52:53.081Z,97447.06
2023-09-06T12:55:21.513Z,97452.47
2023-09-06T12:57:51.469Z,97450.34
2023-09-06T13:00:19.525Z,97447.91
2023-09-06T13:02:47.214Z,97450.38
2023-09-06T13:05:15.177Z,97443.13
2023-09-06T13:07:43.077Z,97434.19
2023-09-06T13:10:12.343Z,97441.16
2023-09-06T13:12:41.960Z,97440.84
2023-09-06T13:15:10.106Z,97441.97
2023-09-06T13:17:38.204Z,97424.47
2023-09-06T13:20:07.366Z,97434.22
2023-09-06T13:22:37.032Z,97432.25
2023-09-06T13:25:06.471Z,97425.63
2023-09-06T13:27:36.333Z,97419.56
2023-09-06T13:30:04.764Z,97415.59
2023-09-06T13:32:32.730Z,97413.56
2023-09-06T13:35:00.705Z,97409.56
2023-09-06T13:37:28.388Z,97405.38
2023-09-06T13:39:56.049Z,97410.22
2023-09-06T13:42:23.758Z,97396.66
2023-09-06T13:44:52.927Z,97399.59
2023-09-06T13:47:20.558Z,97387.09
2023-09-06T13:49:48.196Z,97403.00
2023-09-06T13:52:16.838Z,97395.78
2023-09-06T13:54:44.548Z,97406.69
2023-09-06T13:57:12.280Z,97391.59
2023-09-06T13:59:40.841Z,97394.66
2023-09-06T14:02:10.027Z,97390.09
2023-09-06T14:04:38.530Z,97384.50
2023-09-06T14:07:06.256Z,97391.97
2023-09-06T14:09:33.947Z,97386.13
2023-09-06T14:12:01.572Z,97384.94
2023-09-06T14:14:29.182Z,97385.88
2023-09-06T14:16:56.918Z,97373.97
2023-09-06T14:19:25.868Z,97378.44
2023-09-06T14:21:53.463Z,97374.41
2023-09-06T14:24:21.034Z,97382.00
2023-09-06T14:26:48.670Z,97372.06
2023-09-06T14:29:16.467Z,97375.47
2023-09-06T14:31:44.304Z,97364.69
2023-09-06T14:34:11.971Z,97361.25
2023-09-06T14:36:41.004Z,97358.66
2023-09-06T14:39:09.574Z,97358.44
2023-09-06T14:41:37.656Z,97356.13
2023-09-06T14:44:05.894Z,97371.09
2023-09-06T14:46:33.611Z,97371.81
2023-09-06T14:49:01.339Z,97361.16
2023-09-06T14:51:29.035Z,97360.91
2023-09-06T14:53:58.112Z,97359.41
2023-09-06T14:56:26.084Z,97353.66
2023-09-06T14:58:53.715Z,97354.63
2023-09-06T15:01:21.393Z,97350.00
2023-09-06T15:03:49.185Z,97348.47
2023-09-06T15:06:16.896Z,97351.41
2023-09-06T15:08:44.569Z,97346.38
2023-09-06T15:11:13.567Z,97337.84
2023-09-06T15:13:41.184Z,97339.13
2023-09-06T15:16:08.900Z,97340.50
2023-09-06T15:18:36.650Z,97342.19
2023-09-06T15:21:05.141Z,97341.50
2023-09-06T15:23:32.743Z,97342.63
2023-09-06T15:26:00.575Z,97340.88
2023-09-06T15:28:29.781Z,97338.59
2023-09-06T15:30:57.794Z,97340.41
2023-09-06T15:33:25.550Z,97334.34
2023-09-06T15:35:53.205Z,97335.00
2023-09-06T15:38:20.988Z,97333.56
2023-09-06T15:40:48.589Z,97335.84
2023-09-06T15:43:16.177Z,97332.84
2023-09-06T15:45:45.303Z,97333.38
2023-09-06T15:48:12.963Z,97327.38
2023-09-06T15:50:40.738Z,97335.38
2023-09-06T15:53:08.429Z,97332.81
2023-09-06T15:55:36.083Z,97337.03
2023-09-06T15:58:04.116Z,97335.75
2023-09-06T16:00:33.166Z,97340.38
2023-09-06T16:03:03.807Z,97340.13
2023-09-06T16:05:31.805Z,97341.56
2023-09-06T16:07:59.550Z,97342.31
2023-09-06T16:10:27.822Z,97339.06
2023-09-06T16:12:55.645Z,97332.34
2023-09-06T16:15:23.351Z,97335.97
2023-09-06T16:17:51.233Z,97340.44
2023-09-06T16:20:20.526Z,97339.94
2023-09-06T16:22:48.174Z,97340.16
2023-09-06T16:25:15.852Z,97340.88
2023-09-06T16:27:43.494Z,97335.09
2023-09-06T16:30:11.858Z,97334.06
2023-09-06T16:32:39.794Z,97329.19
2023-09-06T16:35:08.035Z,97338.50
2023-09-06T16:37:37.841Z,97344.25
2023-09-06T16:40:06.591Z,97337.25
2023-09-06T16:42:34.240Z,97331.41
2023-09-06T16:45:01.860Z,97341.22
2023-09-06T16:47:29.507Z,97339.56
2023-09-06T16:49:57.282Z,97337.00
2023-09-06T16:52:24.924Z,97336.47
2023-09-06T16:54:54.017Z,97330.91
2023-09-06T16:57:21.745Z,97332.28
2023-09-06T16:59:49.335Z,97332.59
2023-09-06T17:02:17.098Z,97329.44
2023-09-06T17:04:44.724Z,97332.09
2023-09-06T17:07:12.469Z,97329.63
2023-09-06T17:09:40.245Z,97328.16
2023-09-06T17:12:09.491Z,97331.13
2023-09-06T17:14:37.173Z,97330.38
2023-09-06T17:17:05.199Z,97328.09
2023-09-06T17:19:32.835Z,97325.78
2023-09-06T17:22:00.442Z,97332.28
2023-09-06T17:24:28.148Z,97334.69
2023-09-06T17:26:55.750Z,97340.25
2023-09-06T17:29:24.703Z,97341.97
2023-09-06T17:31:52.378Z,97340.97
2023-09-06T17:34:20.032Z,97347.19
2023-09-06T17:36:47.600Z,97344.38
2023-09-06T17:39:15.243Z,97351.59
2023-09-06T17:41:42.897Z,97352.00
2023-09-06T17:44:10.736Z,97350.94
2023-09-06T17:46:39.737Z,97354.19
2023-09-06T17:49:07.540Z,97351.63
2023-09-06T17:51:36.038Z,97358.19
2023-09-06T17:54:03.815Z,97357.78
2023-09-06T17:56:32.115Z,97352.78
2023-09-06T17:58:59.754Z,97353.28
2023-09-06T18:01:27.807Z,97350.53
2023-09-06T18:03:57.237Z,97353.28
2023-09-06T18:06:25.153Z,97355.56
2023-09-06T18:08:54.151Z,97351.75
2023-09-06T18:11:22.167Z,97354.59
2023-09-06T18:13:50.314Z,97363.81
2023-09-06T18:16:18.917Z,97364.59
2023-09-06T18:18:47.142Z,97361.25
2023-09-06T18:21:18.056Z,97365.69
2023-09-06T18:23:45.806Z,97363.16
2023-09-06T18:26:14.014Z,97373.78
2023-09-06T18:28:41.806Z,97366.03
2023-09-06T18:31:09.713Z,97371.66
2023-09-06T18:33:38.397Z,97372.25
2023-09-06T18:36:06.457Z,97372.13
2023-09-06T18:38:35.475Z,97376.22
2023-09-06T18:41:03.222Z,97367.88
2023-09-06T18:43:31.030Z,97369.22
2023-09-06T18:45:58.862Z,97384.09
2023-09-06T18:48:26.577Z,97387.28
2023-09-06T18:50:54.295Z,97390.28
2023-09-06T18:53:22.091Z,97399.25
2023-09-06T18:55:51.198Z,97407.75
2023-09-06T18:58:19.009Z,97408.66
2023-09-06T19:00:53.553Z,97416.38
2023-09-06T19:03:21.282Z,97406.97
2023-09-06T19:05:48.976Z,97413.50
2023-09-06T19:08:17.141Z,97413.97
2023-09-06T19:10:44.894Z,97412.31
2023-09-06T19:13:13.886Z,97410.75
2023-09-06T19:15:41.519Z,97415.13
2023-09-06T19:18:09.196Z,97404.94
2023-09-06T19:20:36.863Z,97408.09
2023-09-06T19:23:04.670Z,97408.84
2023-09-06T19:25:32.328Z,97407.44
2023-09-06T19:27:59.926Z,97406.88
2023-09-06T19:30:29.118Z,97404.09
2023-09-06T19:32:56.770Z,97411.69
2023-09-06T19:35:24.683Z,97412.59
2023-09-06T19:37:52.331Z,97409.63
2023-09-06T19:40:19.937Z,97402.31
2023-09-06T19:42:47.552Z,97408.09
2023-09-06T19:45:15.282Z,97403.91
2023-09-06T19:47:44.312Z,97410.00
2023-09-06T19:50:12.091Z,97408.88
2023-09-06T19:52:39.749Z,97411.88
2023-09-06T19:55:08.049Z,97417.06
2023-09-06T19:57:35.689Z,97410.81
2023-09-06T20:00:04.004Z,97414.84
2023-09-06T20:02:31.881Z,97415.03
2023-09-06T20:05:01.205Z,97416.03
2023-09-06T20:07:30.905Z,97414.53
2023-09-06T20:09:58.679Z,97411.31
2023-09-06T20:12:26.294Z,97419.16
2023-09-06T20:14:53.954Z,97412.50
2023-09-06T20:17:21.802Z,97414.41
2023-09-06T20:19:49.585Z,97410.72
2023-09-06T20:22:18.573Z,97412.78
2023-09-06T20:24:46.179Z,97409.91
2023-09-06T20:27:13.779Z,97408.25
2023-09-06T20:29:41.454Z,97408.69
2023-09-06T20:32:09.119Z,97414.19
2023-09-06T20:34:36.738Z,97417.59
2023-09-06T20:37:04.647Z,97414.81
2023-09-06T20:39:33.611Z,97417.16
2023-09-06T20:42:01.261Z,97415.94
2023-09-06T20:44:30.876Z,97412.94
2023-09-06T20:47:00.513Z,97419.19
2023-09-06T20:49:31.532Z,97423.56
2023-09-06T20:51:59.233Z,97430.94
2023-09-06T20:54:26.896Z,97429.41
2023-09-06T20:56:55.915Z,97426.88
2023-09-06T20:59:23.633Z,97426.75
2023-09-06T21:01:51.976Z,97430.81
2023-09-06T21:04:19.726Z,97427.78
2023-09-06T21:06:47.378Z,97433.75
2023-09-06T21:09:14.988Z,97436.91
2023-09-06T21:11:43.745Z,97437.03
2023-09-06T21:14:12.770Z,97438.19
2023-09-06T21:16:40.380Z,97439.03
2023-09-06T21:19:08.004Z,97439.16
2023-09-06T21:21:35.580Z,97439.59
2023-09-06T21:24:03.492Z,97446.44
2023-09-06T21:26:31.188Z,97444.94
2023-09-06T21:28:59.297Z,97445.06
2023-09-06T21:31:28.280Z,97445.28
2023-09-06T21:33:56.829Z,97446.41
2023-09-06T21:36:24.545Z,97457.56
2023-09-06T21:38:52.255Z,97457.06
2023-09-06T21:41:19.889Z,97457.75
2023-09-06T21:43:47.501Z,97456.31
2023-09-06T21:46:15.155Z,97452.63
2023-09-06T21:48:44.975Z,97459.91
2023-09-06T21:51:14.598Z,97463.84
2023-09-06T21:53:44.618Z,97458.72
2023-09-06T21:56:14.446Z,97461.94
2023-09-06T21:58:43.384Z,97454.44
2023-09-06T22:01:11.030Z,97465.94
2023-09-06T22:03:38.826Z,97471.41
2023-09-06T22:06:07.870Z,97473.31
2023-09-06T22:08:35.461Z,97469.69
2023-09-06T22:11:03.053Z,97463.66
2023-09-06T22:13:30.666Z,97473.81
2023-09-06T22:15:58.290Z,97477.00
2023-09-06T22:18:25.948Z,97471.31
2023-09-06T22:20:53.590Z,97480.25
2023-09-06T22:23:22.535Z,97473.06
2023-09-06T22:25:57.721Z,97475.28
2023-09-06T22:28:25.393Z,97468.50
2023-09-06T22:30:53.143Z,97475.22
2023-09-06T22:33:20.826Z,97476.84
2023-09-06T22:35:48.422Z,97476.59
2023-09-06T22:38:16.068Z,97484.53
2023-09-06T22:40:46.237Z,97482.09
2023-09-06T22:43:16.421Z,97480.66
2023-09-06T22:45:44.232Z,97481.31
2023-09-06T22:48:12.144Z,97477.69
2023-09-06T22:50:39.810Z,97486.38
2023-09-06T22:53:07.443Z,97478.34
2023-09-06T22:55:35.256Z,97486.19
2023-09-06T22:58:04.499Z,97485.22
2023-09-06T23:00:34.059Z,97484.56
2023-09-06T23:03:01.794Z,97487.41
2023-09-06T23:05:29.566Z,97489.56
2023-09-06T23:07:57.227Z,97495.03
2023-09-06T23:10:24.978Z,97491.94
2023-09-06T23:12:52.752Z,97490.19
2023-09-06T23:15:21.699Z,97484.91
2023-09-06T23:17:49.359Z,97481.03
2023-09-06T23:20:17.255Z,97486.19
2023-09-06T23:22:44.910Z,97486.06
2023-09-06T23:25:12.810Z,97491.09
2023-09-06T23:27:40.982Z,97492.59
2023-09-06T23:30:09.560Z,97501.09
2023-09-06T23:32:38.582Z,97494.97
2023-09-06T23:35:07.011Z,97491.84
2023-09-06T23:37:34.963Z,97500.34
2023-09-06T23:40:02.915Z,97495.59
2023-09-06T23:42:30.504Z,97492.41
2023-09-06T23:44:58.122Z,97492.03
2023-09-06T23:47:25.751Z,97490.75
2023-09-06T23:49:54.710Z,97484.13
2023-09-06T23:52:22.438Z,97480.13
2023-09-06T23:54:50.066Z,97483.91
2023-09-06T23:57:17.701Z,97474.78
2023-09-06T23:59:45.303Z,97481.53
